Wetterdaten: Woche 30.01.17 - 05.02.17 (KW5)
Datum Zeit Temp. A. Feuchte A. Luftdruck Regen Wind Richtung Taupunkt Windchill Windben
30.01.2017 00:00 -2,9 C 96 % 1022,8 hPa 0,0 l/m 0,6 km/h (0 Bft) N -3,5 C -2,9 C 2,1 km/h (1 Bft)
30.01.2017 01:00 -1,5 C 95 % 1022,0 hPa 0,0 l/m 2,2 km/h (1 Bft) O-NO -2,1 C -1,5 C 6,1 km/h (2 Bft)
30.01.2017 02:00 -1,4 C 94 % 1021,4 hPa 0,0 l/m 2,6 km/h (1 Bft) O-NO -2,3 C -1,4 C 7,6 km/h (2 Bft)
30.01.2017 03:00 -2,2 C 93 % 1020,8 hPa 0,0 l/m 1,2 km/h (1 Bft) O -3,1 C -2,2 C 4,0 km/h (1 Bft)
30.01.2017 04:00 -0,8 C 93 % 1020,3 hPa 0,0 l/m 2,6 km/h (1 Bft) O-SO -1,7 C -0,8 C 7,0 km/h (2 Bft)
30.01.2017 05:00 0,3 C 90 % 1019,9 hPa 0,0 l/m 1,6 km/h (1 Bft) O-NO -1,1 C 0,3 C 4,4 km/h (1 Bft)
30.01.2017 06:00 0,4 C 90 % 1019,4 hPa 0,0 l/m 1,8 km/h (1 Bft) O-SO -1,0 C 0,4 C 5,1 km/h (1 Bft)
30.01.2017 07:00 1,3 C 90 % 1018,9 hPa 0,0 l/m 2,1 km/h (1 Bft) O -0,2 C 1,3 C 6,4 km/h (2 Bft)
30.01.2017 08:00 1,5 C 93 % 1018,7 hPa 0,5 l/m 1,5 km/h (1 Bft) NO 0,4 C 1,5 C 4,3 km/h (1 Bft)
30.01.2017 09:00 2,0 C 92 % 1018,1 hPa 0,0 l/m 1,4 km/h (1 Bft) NO 0,9 C 2,0 C 4,5 km/h (1 Bft)
30.01.2017 10:00 2,1 C 93 % 1017,7 hPa 3,6 l/m 3,1 km/h (1 Bft) NO 1,2 C 2,0 C 7,0 km/h (2 Bft)
30.01.2017 11:00 2,2 C 94 % 1017,0 hPa 0,5 l/m 2,5 km/h (1 Bft) NO 1,4 C 2,2 C 6,3 km/h (2 Bft)
30.01.2017 12:00 3,0 C 94 % 1016,5 hPa 0,8 l/m 4,7 km/h (1 Bft) NO 2,1 C 2,3 C 10,2 km/h (2 Bft)
30.01.2017 13:00 3,5 C 93 % 1015,6 hPa 0,5 l/m 5,7 km/h (2 Bft) O-NO 2,4 C 3,4 C 13,7 km/h (3 Bft)
30.01.2017 14:00 3,8 C 92 % 1014,9 hPa 0,8 l/m 8,8 km/h (2 Bft) O-NO 2,6 C 1,7 C 20,1 km/h (4 Bft)
30.01.2017 15:00 3,7 C 94 % 1014,6 hPa 1,3 l/m 8,4 km/h (2 Bft) O 2,9 C 1,9 C 20,6 km/h (4 Bft)
30.01.2017 16:00 4,2 C 95 % 1014,7 hPa 0,0 l/m 5,2 km/h (1 Bft) O-NO 3,4 C 4,0 C 13,8 km/h (3 Bft)
30.01.2017 17:00 4,4 C 95 % 1014,9 hPa 0,0 l/m 3,9 km/h (1 Bft) O-NO 3,7 C 4,2 C 10,6 km/h (2 Bft)
30.01.2017 18:00 4,6 C 96 % 1015,1 hPa 0,3 l/m 4,1 km/h (1 Bft) O-NO 4,0 C 4,6 C 10,3 km/h (2 Bft)
30.01.2017 19:00 4,6 C 96 % 1015,0 hPa 0,5 l/m 5,0 km/h (1 Bft) O-NO 4,0 C 4,6 C 13,0 km/h (3 Bft)
30.01.2017 20:00 4,7 C 96 % 1015,1 hPa 0,3 l/m 6,2 km/h (2 Bft) O 4,2 C 4,4 C 14,9 km/h (3 Bft)
30.01.2017 21:00 4,9 C 96 % 1015,3 hPa 0,3 l/m 6,1 km/h (2 Bft) O-NO 4,3 C 4,6 C 15,0 km/h (3 Bft)
30.01.2017 22:00 4,8 C 96 % 1015,2 hPa 0,5 l/m 4,4 km/h (1 Bft) O 4,3 C 4,8 C 12,2 km/h (2 Bft)
30.01.2017 23:00 4,9 C 96 % 1015,0 hPa 0,5 l/m 3,4 km/h (1 Bft) O-NO 4,3 C 4,9 C 9,3 km/h (2 Bft)
31.01.2017 00:00 4,8 C 97 % 1014,8 hPa 0,0 l/m 3,3 km/h (1 Bft) O-NO 4,4 C 4,8 C 7,4 km/h (2 Bft)
31.01.2017 01:00 4,9 C 97 % 1014,5 hPa 0,5 l/m 3,0 km/h (1 Bft) O-NO 4,5 C 4,9 C 8,4 km/h (2 Bft)
31.01.2017 02:00 4,9 C 97 % 1014,3 hPa 0,0 l/m 2,5 km/h (1 Bft) O-NO 4,5 C 4,9 C 6,7 km/h (2 Bft)
31.01.2017 03:00 4,5 C 97 % 1014,1 hPa 0,5 l/m 0,5 km/h (0 Bft) O 4,0 C 4,5 C 2,3 km/h (1 Bft)
31.01.2017 04:00 4,3 C 98 % 1013,7 hPa 1,5 l/m 1,8 km/h (1 Bft) O 4,0 C 4,3 C 4,9 km/h (1 Bft)
31.01.2017 05:00 4,5 C 97 % 1013,7 hPa 0,8 l/m 0,9 km/h (0 Bft) N 4,0 C 4,5 C 2,5 km/h (1 Bft)
31.01.2017 06:00 3,8 C 97 % 1013,7 hPa 0,5 l/m 0,1 km/h (0 Bft) O 3,3 C 3,8 C 0,9 km/h (0 Bft)
31.01.2017 07:00 3,0 C 97 % 1013,7 hPa 1,8 l/m 0,0 km/h (0 Bft) O 2,6 C 3,0 C 0,7 km/h (0 Bft)
31.01.2017 08:00 3,7 C 98 % 1013,9 hPa 1,3 l/m 1,5 km/h (1 Bft) O-NO 3,4 C 3,7 C 4,3 km/h (1 Bft)
31.01.2017 09:00 4,8 C 98 % 1013,9 hPa 1,0 l/m 2,8 km/h (1 Bft) O-NO 4,5 C 4,8 C 6,4 km/h (2 Bft)
31.01.2017 10:00 5,1 C 98 % 1014,3 hPa 0,5 l/m 3,0 km/h (1 Bft) O-NO 4,8 C 5,1 C 6,4 km/h (2 Bft)
31.01.2017 11:00 5,5 C 97 % 1014,6 hPa 0,8 l/m 3,1 km/h (1 Bft) O-NO 5,1 C 5,5 C 6,8 km/h (2 Bft)
31.01.2017 12:00 5,8 C 97 % 1014,5 hPa 0,5 l/m 2,2 km/h (1 Bft) O 5,4 C 5,8 C 4,5 km/h (1 Bft)
31.01.2017 13:00 6,0 C 97 % 1014,5 hPa 0,8 l/m 0,5 km/h (0 Bft) O-SO 5,6 C 6,0 C 2,5 km/h (1 Bft)
31.01.2017 14:00 6,1 C 97 % 1014,4 hPa 0,5 l/m 0,6 km/h (0 Bft) O 5,6 C 6,1 C 2,5 km/h (1 Bft)
31.01.2017 15:00 5,8 C 96 % 1014,7 hPa 0,5 l/m 0,1 km/h (0 Bft) SO 5,2 C 5,8 C 0,5 km/h (0 Bft)
31.01.2017 16:00 4,9 C 96 % 1015,0 hPa 0,3 l/m 0,1 km/h (0 Bft) SO 4,3 C 4,9 C 0,7 km/h (0 Bft)
31.01.2017 17:00 3,8 C 97 % 1015,4 hPa 0,5 l/m 0,4 km/h (0 Bft) SO 3,4 C 3,8 C 1,3 km/h (1 Bft)
31.01.2017 18:00 3,3 C 97 % 1015,7 hPa 0,0 l/m 0,4 km/h (0 Bft) S 2,9 C 3,3 C 2,0 km/h (1 Bft)
31.01.2017 19:00 2,5 C 97 % 1016,2 hPa 0,0 l/m 0,3 km/h (0 Bft) S 2,1 C 2,5 C 1,7 km/h (1 Bft)
31.01.2017 20:00 2,2 C 97 % 1016,8 hPa 0,5 l/m 0,4 km/h (0 Bft) S-SW 1,8 C 2,2 C 2,5 km/h (1 Bft)
31.01.2017 21:00 1,9 C 97 % 1017,0 hPa 0,0 l/m 0,7 km/h (0 Bft) W-SW 1,5 C 1,9 C 2,9 km/h (1 Bft)
31.01.2017 22:00 1,6 C 98 % 1017,2 hPa 0,3 l/m 0,1 km/h (0 Bft) W-SW 1,3 C 1,6 C 1,1 km/h (0 Bft)
31.01.2017 23:00 1,4 C 98 % 1017,4 hPa 0,0 l/m 0,1 km/h (0 Bft) W-SW 1,1 C 1,4 C 0,9 km/h (0 Bft)
01.02.2017 00:00 1,3 C 98 % 1017,5 hPa 0,0 l/m 0,1 km/h (0 Bft) W-SW 1,0 C 1,3 C 0,6 km/h (0 Bft)
01.02.2017 01:00 1,0 C 98 % 1017,3 hPa 0,0 l/m 0,1 km/h (0 Bft) W-SW 0,8 C 1,0 C 1,1 km/h (0 Bft)
01.02.2017 02:00 0,9 C 98 % 1017,4 hPa 0,0 l/m 0,1 km/h (0 Bft) W-SW 0,6 C 0,9 C 0,8 km/h (0 Bft)
01.02.2017 03:00 0,9 C 98 % 1017,5 hPa 0,0 l/m 0,1 km/h (0 Bft) W-SW 0,6 C 0,9 C 0,9 km/h (0 Bft)
01.02.2017 04:00 0,8 C 98 % 1017,4 hPa 0,0 l/m 0,1 km/h (0 Bft) W-SW 0,5 C 0,8 C 0,8 km/h (0 Bft)
01.02.2017 05:00 0,8 C 98 % 1017,4 hPa 0,0 l/m 0,0 km/h (0 Bft) W-SW 0,5 C 0,8 C 0,6 km/h (0 Bft)
01.02.2017 06:00 0,8 C 98 % 1017,3 hPa 0,0 l/m 0,1 km/h (0 Bft) W-SW 0,5 C 0,8 C 0,7 km/h (0 Bft)
01.02.2017 07:00 0,7 C 98 % 1017,3 hPa 0,3 l/m 0,0 km/h (0 Bft) W-SW 0,4 C 0,7 C 0,3 km/h (0 Bft)
01.02.2017 08:00 0,8 C 98 % 1017,4 hPa 0,0 l/m 0,1 km/h (0 Bft) W-SW 0,5 C 0,8 C 0,8 km/h (0 Bft)
01.02.2017 09:00 1,3 C 98 % 1017,6 hPa 0,0 l/m 0,0 km/h (0 Bft) W-SW 1,0 C 1,3 C 0,3 km/h (0 Bft)
01.02.2017 10:00 1,8 C 98 % 1017,6 hPa 0,0 l/m 0,0 km/h (0 Bft) W-SW 1,5 C 1,8 C 0,1 km/h (0 Bft)
01.02.2017 11:00 2,5 C 98 % 1017,6 hPa 0,0 l/m 0,3 km/h (0 Bft) W-SW 2,2 C 2,5 C 1,8 km/h (1 Bft)
01.02.2017 12:00 3,0 C 98 % 1017,3 hPa 0,0 l/m 0,2 km/h (0 Bft) N 2,7 C 3,0 C 0,9 km/h (0 Bft)
01.02.2017 13:00 3,6 C 98 % 1016,9 hPa 0,0 l/m 0,3 km/h (0 Bft) W-SW 3,3 C 3,6 C 1,6 km/h (1 Bft)
01.02.2017 14:00 3,7 C 98 % 1016,4 hPa 0,5 l/m 0,4 km/h (0 Bft) W-SW 3,4 C 3,7 C 2,1 km/h (1 Bft)
01.02.2017 15:00 4,0 C 98 % 1016,3 hPa 0,0 l/m 0,2 km/h (0 Bft) W-SW 3,7 C 4,0 C 1,1 km/h (0 Bft)
01.02.2017 16:00 4,1 C 98 % 1016,4 hPa 0,0 l/m 0,2 km/h (0 Bft) W-SW 3,8 C 4,1 C 1,5 km/h (1 Bft)
01.02.2017 17:00 3,3 C 97 % 1016,4 hPa 0,0 l/m 0,1 km/h (0 Bft) W-SW 2,8 C 3,3 C 0,5 km/h (0 Bft)
01.02.2017 18:00 2,8 C 98 % 1016,4 hPa 0,0 l/m 0,0 km/h (0 Bft) W-SW 2,4 C 2,8 C 0,7 km/h (0 Bft)
01.02.2017 19:00 3,3 C 98 % 1016,3 hPa 0,0 l/m 1,5 km/h (1 Bft) O 3,0 C 3,3 C 5,1 km/h (1 Bft)
01.02.2017 20:00 3,4 C 98 % 1016,2 hPa 0,0 l/m 1,6 km/h (1 Bft) O-NO 3,1 C 3,4 C 5,1 km/h (1 Bft)
01.02.2017 21:00 2,8 C 98 % 1016,1 hPa 0,0 l/m 1,3 km/h (1 Bft) O 2,5 C 2,8 C 4,3 km/h (1 Bft)
01.02.2017 22:00 1,9 C 98 % 1016,0 hPa 0,0 l/m 0,2 km/h (0 Bft) O 1,5 C 1,9 C 1,6 km/h (1 Bft)
01.02.2017 23:00 1,2 C 98 % 1015,9 hPa 0,0 l/m 0,1 km/h (0 Bft) O-SO 0,9 C 1,2 C 1,1 km/h (0 Bft)
02.02.2017 00:00 0,9 C 98 % 1015,8 hPa 0,0 l/m 0,2 km/h (0 Bft) O-SO 0,7 C 0,9 C 1,2 km/h (1 Bft)
02.02.2017 01:00 0,9 C 98 % 1015,4 hPa 0,0 l/m 0,6 km/h (0 Bft) O-SO 0,6 C 0,9 C 2,3 km/h (1 Bft)
02.02.2017 02:00 1,7 C 98 % 1015,5 hPa 0,0 l/m 0,7 km/h (0 Bft) N 1,4 C 1,7 C 3,2 km/h (1 Bft)
02.02.2017 03:00 1,8 C 98 % 1015,1 hPa 0,0 l/m 0,5 km/h (0 Bft) S 1,6 C 1,8 C 2,3 km/h (1 Bft)
02.02.2017 04:00 1,1 C 98 % 1014,9 hPa 0,0 l/m 0,2 km/h (0 Bft) S 0,8 C 1,1 C 1,3 km/h (1 Bft)
02.02.2017 05:00 0,8 C 98 % 1014,6 hPa 0,0 l/m 0,1 km/h (0 Bft) S 0,5 C 0,8 C 1,3 km/h (1 Bft)
02.02.2017 06:00 0,7 C 98 % 1014,5 hPa 0,0 l/m 0,3 km/h (0 Bft) O 0,4 C 0,7 C 2,0 km/h (1 Bft)
02.02.2017 07:00 0,1 C 98 % 1014,4 hPa 0,0 l/m 0,3 km/h (0 Bft) S-SO -0,2 C 0,1 C 1,7 km/h (1 Bft)
02.02.2017 08:00 0,2 C 98 % 1014,2 hPa 0,0 l/m 0,2 km/h (0 Bft) S-SO -0,1 C 0,2 C 1,2 km/h (1 Bft)
02.02.2017 09:00 2,1 C 99 % 1013,8 hPa 0,0 l/m 0,3 km/h (0 Bft) S-SO 2,0 C 2,1 C 1,7 km/h (1 Bft)
02.02.2017 10:00 4,8 C 98 % 1013,5 hPa 0,0 l/m 1,1 km/h (1 Bft) O 4,6 C 4,8 C 3,6 km/h (1 Bft)
02.02.2017 11:00 7,2 C 91 % 1012,7 hPa 0,0 l/m 0,8 km/h (0 Bft) O 5,9 C 7,2 C 2,7 km/h (1 Bft)
02.02.2017 12:00 7,9 C 88 % 1012,0 hPa 0,0 l/m 1,1 km/h (0 Bft) O 6,0 C 7,9 C 2,8 km/h (1 Bft)
02.02.2017 13:00 9,0 C 85 % 1011,0 hPa 0,0 l/m 1,0 km/h (0 Bft) W-NW 6,7 C 9,0 C 2,8 km/h (1 Bft)
02.02.2017 14:00 8,9 C 87 % 1010,3 hPa 0,0 l/m 0,6 km/h (0 Bft) W-NW 7,0 C 8,9 C 1,9 km/h (1 Bft)
02.02.2017 15:00 8,3 C 89 % 1010,0 hPa 0,0 l/m 0,5 km/h (0 Bft) W-NW 6,6 C 8,3 C 2,4 km/h (1 Bft)
02.02.2017 16:00 7,9 C 90 % 1010,1 hPa 0,0 l/m 0,2 km/h (0 Bft) W-NW 6,4 C 7,9 C 1,2 km/h (1 Bft)
02.02.2017 17:00 5,5 C 92 % 1010,0 hPa 0,0 l/m 0,4 km/h (0 Bft) W-NW 4,3 C 5,5 C 1,3 km/h (1 Bft)
02.02.2017 18:00 3,8 C 95 % 1010,0 hPa 0,0 l/m 0,5 km/h (0 Bft) W-NW 3,1 C 3,8 C 1,7 km/h (1 Bft)
02.02.2017 19:00 2,6 C 96 % 1010,0 hPa 0,0 l/m 0,0 km/h (0 Bft) W-NW 2,1 C 2,6 C 0,3 km/h (0 Bft)
02.02.2017 20:00 2,3 C 97 % 1009,9 hPa 0,0 l/m 0,0 km/h (0 Bft) W-NW 1,8 C 2,3 C 0,4 km/h (0 Bft)
02.02.2017 21:00 2,1 C 97 % 1009,6 hPa 0,0 l/m 0,0 km/h (0 Bft) W-NW 1,7 C 2,1 C 0,5 km/h (0 Bft)
02.02.2017 22:00 1,9 C 97 % 1009,1 hPa 0,0 l/m 0,2 km/h (0 Bft) W-NW 1,5 C 1,9 C 1,3 km/h (1 Bft)
02.02.2017 23:00 2,4 C 98 % 1008,8 hPa 0,0 l/m 0,6 km/h (0 Bft) NO 2,0 C 2,4 C 3,5 km/h (1 Bft)
03.02.2017 00:00 2,4 C 97 % 1008,8 hPa 0,0 l/m 0,2 km/h (0 Bft) O 2,0 C 2,4 C 1,4 km/h (1 Bft)
03.02.2017 01:00 2,3 C 97 % 1008,9 hPa 0,0 l/m 0,0 km/h (0 Bft) O 1,9 C 2,3 C 0,7 km/h (0 Bft)
03.02.2017 02:00 2,3 C 98 % 1008,9 hPa 0,0 l/m 0,1 km/h (0 Bft) O 2,0 C 2,3 C 0,9 km/h (0 Bft)
03.02.2017 03:00 2,6 C 98 % 1008,4 hPa 0,0 l/m 0,2 km/h (0 Bft) O 2,3 C 2,6 C 1,3 km/h (1 Bft)
03.02.2017 04:00 2,7 C 98 % 1008,0 hPa 0,0 l/m 0,8 km/h (0 Bft) W 2,4 C 2,7 C 3,2 km/h (1 Bft)
03.02.2017 05:00 3,4 C 98 % 1007,8 hPa 0,3 l/m 0,4 km/h (0 Bft) W 3,1 C 3,4 C 1,9 km/h (1 Bft)
03.02.2017 06:00 3,5 C 98 % 1007,5 hPa 0,0 l/m 0,5 km/h (0 Bft) W 3,3 C 3,5 C 1,9 km/h (1 Bft)
03.02.2017 07:00 5,2 C 97 % 1008,3 hPa 0,0 l/m 2,8 km/h (1 Bft) O-NO 4,8 C 5,2 C 6,4 km/h (2 Bft)
03.02.2017 08:00 5,9 C 92 % 1008,5 hPa 0,0 l/m 3,7 km/h (1 Bft) O 4,6 C 5,9 C 10,1 km/h (2 Bft)
03.02.2017 09:00 5,6 C 91 % 1008,6 hPa 0,0 l/m 3,4 km/h (1 Bft) O-NO 4,3 C 5,6 C 8,4 km/h (2 Bft)
03.02.2017 10:00 5,7 C 90 % 1008,8 hPa 0,0 l/m 3,5 km/h (1 Bft) O-NO 4,2 C 5,7 C 8,8 km/h (2 Bft)
03.02.2017 11:00 7,0 C 85 % 1008,6 hPa 0,0 l/m 4,2 km/h (1 Bft) O 4,7 C 6,9 C 9,7 km/h (2 Bft)
03.02.2017 12:00 8,2 C 80 % 1008,1 hPa 0,3 l/m 4,2 km/h (1 Bft) O 5,0 C 8,2 C 9,1 km/h (2 Bft)
03.02.2017 13:00 9,4 C 72 % 1007,3 hPa 0,0 l/m 5,4 km/h (1 Bft) NO 4,6 C 9,3 C 11,4 km/h (2 Bft)
03.02.2017 14:00 10,4 C 68 % 1006,8 hPa 0,0 l/m 3,9 km/h (1 Bft) O-NO 4,7 C 10,4 C 8,8 km/h (2 Bft)
03.02.2017 15:00 10,7 C 66 % 1006,3 hPa 0,0 l/m 3,2 km/h (1 Bft) NO 4,6 C 10,7 C 7,2 km/h (2 Bft)
03.02.2017 16:00 9,8 C 71 % 1006,0 hPa 0,0 l/m 2,3 km/h (1 Bft) N-NO 4,9 C 9,8 C 5,7 km/h (2 Bft)
03.02.2017 17:00 6,1 C 83 % 1006,1 hPa 0,0 l/m 1,4 km/h (1 Bft) O-NO 3,4 C 6,1 C 3,2 km/h (1 Bft)
03.02.2017 18:00 5,0 C 86 % 1006,3 hPa 0,0 l/m 2,5 km/h (1 Bft) O 2,9 C 5,0 C 5,3 km/h (1 Bft)
03.02.2017 19:00 4,4 C 88 % 1007,0 hPa 0,0 l/m 3,1 km/h (1 Bft) O-NO 2,6 C 4,4 C 8,3 km/h (2 Bft)
03.02.2017 20:00 4,4 C 89 % 1006,9 hPa 0,0 l/m 3,6 km/h (1 Bft) O-NO 2,7 C 4,4 C 9,0 km/h (2 Bft)
03.02.2017 21:00 4,9 C 86 % 1007,2 hPa 0,0 l/m 5,4 km/h (1 Bft) NO 2,8 C 4,3 C 13,9 km/h (3 Bft)
03.02.2017 22:00 5,9 C 80 % 1007,2 hPa 0,0 l/m 8,8 km/h (2 Bft) O 2,6 C 3,9 C 22,8 km/h (4 Bft)
03.02.2017 23:00 6,1 C 77 % 1007,0 hPa 0,0 l/m 8,8 km/h (2 Bft) O-NO 2,4 C 4,2 C 20,2 km/h (4 Bft)
04.02.2017 00:00 5,7 C 77 % 1006,9 hPa 0,0 l/m 7,3 km/h (2 Bft) O 2,0 C 4,7 C 16,8 km/h (3 Bft)
04.02.2017 01:00 5,2 C 78 % 1006,9 hPa 0,0 l/m 6,3 km/h (2 Bft) O 1,7 C 4,9 C 16,2 km/h (3 Bft)
04.02.2017 02:00 5,0 C 77 % 1006,9 hPa 0,0 l/m 5,2 km/h (1 Bft) O-NO 1,3 C 4,6 C 14,5 km/h (3 Bft)
04.02.2017 03:00 3,5 C 80 % 1006,0 hPa 0,0 l/m 0,6 km/h (0 Bft) NO 0,3 C 3,5 C 2,8 km/h (1 Bft)
04.02.2017 04:00 0,9 C 89 % 1005,3 hPa 0,0 l/m 0,5 km/h (0 Bft) O -0,8 C 0,9 C 2,1 km/h (1 Bft)
04.02.2017 05:00 -0,8 C 92 % 1004,8 hPa 0,0 l/m 0,1 km/h (0 Bft) O-SO -1,9 C -0,8 C 0,9 km/h (0 Bft)
04.02.2017 06:00 -1,4 C 94 % 1004,5 hPa 0,0 l/m 0,0 km/h (0 Bft) O-SO -2,3 C -1,4 C 0,1 km/h (0 Bft)
04.02.2017 07:00 -1,9 C 95 % 1004,1 hPa 0,0 l/m 0,1 km/h (0 Bft) O-SO -2,5 C -1,9 C 0,5 km/h (0 Bft)
04.02.2017 08:00 -1,7 C 96 % 1003,9 hPa 0,0 l/m 0,1 km/h (0 Bft) O-SO -2,2 C -1,7 C 1,1 km/h (0 Bft)
04.02.2017 09:00 -0,9 C 96 % 1002,9 hPa 0,0 l/m 0,4 km/h (0 Bft) O-SO -1,5 C -0,9 C 1,9 km/h (1 Bft)
04.02.2017 10:00 0,1 C 96 % 1002,6 hPa 0,0 l/m 0,6 km/h (0 Bft) SO -0,5 C 0,1 C 2,3 km/h (1 Bft)
04.02.2017 11:00 1,2 C 95 % 1002,1 hPa 0,0 l/m 0,5 km/h (0 Bft) SO 0,4 C 1,2 C 2,0 km/h (1 Bft)
04.02.2017 12:00 2,2 C 92 % 1001,3 hPa 0,0 l/m 0,8 km/h (0 Bft) N 1,1 C 2,2 C 2,3 km/h (1 Bft)
04.02.2017 13:00 4,3 C 83 % 1000,2 hPa 0,0 l/m 2,3 km/h (1 Bft) O-NO 1,6 C 4,3 C 7,6 km/h (2 Bft)
04.02.2017 14:00 5,8 C 76 % 999,5 hPa 0,0 l/m 4,7 km/h (1 Bft) O-NO 1,9 C 5,7 C 13,2 km/h (3 Bft)
04.02.2017 15:00 4,7 C 86 % 999,4 hPa 1,0 l/m 5,0 km/h (1 Bft) O-NO 2,6 C 4,7 C 12,6 km/h (3 Bft)
04.02.2017 16:00 3,9 C 90 % 999,4 hPa 0,5 l/m 5,1 km/h (1 Bft) O 2,4 C 3,7 C 13,0 km/h (3 Bft)
04.02.2017 17:00 4,0 C 91 % 1000,3 hPa 0,8 l/m 7,6 km/h (2 Bft) O-NO 2,6 C 2,4 C 15,4 km/h (3 Bft)
04.02.2017 18:00 4,3 C 88 % 1001,0 hPa 0,0 l/m 11,4 km/h (2 Bft) O-NO 2,4 C 0,4 C 22,4 km/h (4 Bft)
04.02.2017 19:00 4,2 C 83 % 1002,0 hPa 0,0 l/m 16,1 km/h (3 Bft) O-NO 1,6 C -2,4 C 37,1 km/h (5 Bft)
04.02.2017 20:00 3,8 C 87 % 1003,1 hPa 0,8 l/m 15,0 km/h (3 Bft) O-NO 1,7 C -2,4 C 33,0 km/h (5 Bft)
04.02.2017 21:00 3,3 C 90 % 1004,2 hPa 0,5 l/m 12,2 km/h (2 Bft) O-SO 1,9 C -1,2 C 29,1 km/h (5 Bft)
04.02.2017 22:00 3,2 C 90 % 1005,1 hPa 0,3 l/m 6,9 km/h (2 Bft) O 1,8 C 2,4 C 17,7 km/h (3 Bft)
04.02.2017 23:00 3,3 C 88 % 1006,1 hPa 0,3 l/m 7,1 km/h (2 Bft) NO 1,6 C 2,3 C 18,1 km/h (3 Bft)
05.02.2017 00:00 3,3 C 85 % 1006,6 hPa 0,0 l/m 5,6 km/h (2 Bft) O-NO 1,1 C 3,0 C 12,4 km/h (2 Bft)
05.02.2017 01:00 3,2 C 81 % 1006,5 hPa 0,0 l/m 4,1 km/h (1 Bft) O-NO 0,3 C 3,2 C 11,8 km/h (2 Bft)
05.02.2017 02:00 2,3 C 82 % 1006,4 hPa 0,0 l/m 1,4 km/h (1 Bft) O-NO -0,6 C 2,3 C 4,8 km/h (1 Bft)
05.02.2017 03:00 0,3 C 88 % 1006,4 hPa 0,0 l/m 0,5 km/h (0 Bft) O-NO -1,5 C 0,3 C 2,1 km/h (1 Bft)
05.02.2017 04:00 -1,4 C 92 % 1005,9 hPa 0,0 l/m 0,1 km/h (0 Bft) O-NO -2,6 C -1,4 C 0,9 km/h (0 Bft)
05.02.2017 05:00 -1,3 C 93 % 1005,3 hPa 0,0 l/m 0,6 km/h (0 Bft) O-SO -2,4 C -1,3 C 2,1 km/h (1 Bft)
05.02.2017 06:00 -2,0 C 94 % 1004,8 hPa 0,0 l/m 0,3 km/h (0 Bft) O-SO -2,9 C -2,0 C 1,9 km/h (1 Bft)
05.02.2017 07:00 -1,3 C 95 % 1004,4 hPa 0,0 l/m 1,3 km/h (1 Bft) O -2,0 C -1,3 C 3,7 km/h (1 Bft)
05.02.2017 08:00 0,0 C 91 % 1003,9 hPa 0,0 l/m 1,4 km/h (1 Bft) O-NO -1,3 C 0,0 C 4,7 km/h (1 Bft)
05.02.2017 09:00 -0,3 C 93 % 1003,5 hPa 0,0 l/m 0,2 km/h (0 Bft) O-NO -1,3 C -0,3 C 1,3 km/h (1 Bft)
05.02.2017 10:00 0,2 C 94 % 1003,3 hPa 0,0 l/m 0,1 km/h (0 Bft) O-NO -0,6 C 0,2 C 0,9 km/h (0 Bft)
05.02.2017 11:00 0,9 C 94 % 1003,3 hPa 0,0 l/m 0,5 km/h (0 Bft) O-NO 0,0 C 0,9 C 1,8 km/h (1 Bft)
05.02.2017 12:00 1,6 C 94 % 1002,8 hPa 0,8 l/m 0,1 km/h (0 Bft) O-NO 0,8 C 1,6 C 0,8 km/h (0 Bft)
05.02.2017 13:00 3,0 C 96 % 1002,3 hPa 0,5 l/m 0,1 km/h (0 Bft) O-NO 2,3 C 3,0 C 1,5 km/h (1 Bft)
05.02.2017 14:00 3,6 C 94 % 1001,9 hPa 0,5 l/m 0,5 km/h (0 Bft) O 2,8 C 3,6 C 2,1 km/h (1 Bft)
05.02.2017 15:00 3,9 C 94 % 1001,6 hPa 0,3 l/m 0,5 km/h (0 Bft) O 3,0 C 3,9 C 2,0 km/h (1 Bft)
05.02.2017 16:00 3,7 C 92 % 1002,0 hPa 0,5 l/m 2,6 km/h (1 Bft) O 2,5 C 3,7 C 7,5 km/h (2 Bft)
05.02.2017 17:00 2,3 C 93 % 1002,8 hPa 1,0 l/m 2,3 km/h (1 Bft) O-NO 1,3 C 2,3 C 6,5 km/h (2 Bft)
05.02.2017 18:00 1,7 C 94 % 1003,4 hPa 1,0 l/m 0,1 km/h (0 Bft) O-NO 0,9 C 1,7 C 0,8 km/h (0 Bft)
05.02.2017 19:00 1,0 C 95 % 1003,9 hPa 1,0 l/m 0,0 km/h (0 Bft) O-NO 0,3 C 1,0 C 0,5 km/h (0 Bft)
05.02.2017 20:00 0,5 C 96 % 1004,4 hPa 0,5 l/m 0,0 km/h (0 Bft) O-NO -0,1 C 0,5 C 0,1 km/h (0 Bft)
05.02.2017 21:00 0,1 C 96 % 1005,0 hPa 0,0 l/m 0,0 km/h (0 Bft) O-NO -0,4 C 0,1 C 0,0 km/h (0 Bft)
05.02.2017 22:00 0,1 C 97 % 1005,5 hPa 0,0 l/m 0,0 km/h (0 Bft) O-NO -0,3 C 0,1 C 0,3 km/h (0 Bft)
05.02.2017 23:00 0,1 C 97 % 1005,8 hPa 0,5 l/m 0,0 km/h (0 Bft) O-NO -0,3 C 0,1 C 0,5 km/h (0 Bft)
Min-Datum _ 30.01.17 03.02.17 04.02.17 - 05.02.17 - 30.01.17 04.02.17 05.02.17
_ Min-Zeit 00:10 15:20 16:00 - 23:00 - 00:10 20:55 23:10
Minimum _ -3,5 C 64 % 999,3 hPa - 0,0 km/h (0 Bft) - -4,2 C -3,8 C 0,0 km/h (0 Bft)
Max-Datum _ 03.02.17 03.02.17 30.01.17 30.01.17 04.02.17 - 02.02.17 03.02.17 04.02.17
_ Max-Zeit 15:10 07:15 00:00 10:05 19:15 - 14:30 15:10 20:10
Maximum _ 11,0 C 99 % 1022,9 hPa 3,6 l/m 19,2 km/h
O-NO (3 Bft)
- 7,2 C 11,0 C 51,5 km/h
O-NO (7 Bft)
Durchschnitt _ 3,0 C 93 % 1011,0 hPa #35,1 l/m 2,1 km/h (1 Bft) O-NO 2,0 C 2,8 C 5,5 km/h (2 Bft)